Time;durP1;ratioP1;P1;durP2;ratioP2;P2;SDS_P1;SDS_P2;PMS_P1;PMS_P2;Temp;Humidity;BMP_temperature;BMP_pressure;BME280_temperature;BME280_humidity;BME280_pressure;Samples;Min_cycle;Max_cycle;Signal;HPM_P1;HPM_P2
2023/11/14 00:01:40;;;;;;;4.45;1.42;;;10.70;99.90;;;;;;4994924;28;20232;-72
2023/11/14 00:04:07;;;;;;;1.88;1.40;;;10.70;99.90;;;;;;4994658;28;20196;-72
2023/11/14 00:06:35;;;;;;;3.05;1.40;;;10.70;99.90;;;;;;4995182;28;20200;-72
2023/11/14 00:09:02;;;;;;;4.53;1.27;;;10.70;99.90;;;;;;4994888;28;20220;-71
2023/11/14 00:11:34;;;;;;;6.50;1.60;;;10.70;99.90;;;;;;4994953;28;20234;-71
2023/11/14 00:14:01;;;;;;;3.75;1.58;;;10.60;99.90;;;;;;4994084;28;20274;-71
2023/11/14 04:32:44;;;;;;;1.77;1.55;;;9.00;99.90;;;;;;5119744;23;20274;-74
2023/11/14 04:35:11;;;;;;;6.00;1.30;;;9.00;99.90;;;;;;4988932;28;20215;-73
2023/11/14 04:37:38;;;;;;;2.33;1.30;;;9.00;99.90;;;;;;4991159;28;20574;-73
2023/11/14 04:40:06;;;;;;;2.60;1.50;;;9.00;99.90;;;;;;4990941;28;20208;-74
2023/11/14 04:42:33;;;;;;;2.65;1.25;;;9.00;99.90;;;;;;4974330;28;20601;-74
2023/11/14 04:45:00;;;;;;;4.70;1.83;;;8.90;99.90;;;;;;4974480;28;20266;-74
2023/11/14 04:47:27;;;;;;;2.72;1.30;;;9.00;99.90;;;;;;4974639;28;20687;-73
2023/11/14 04:52:23;;;;;;;3.70;1.70;;;9.00;99.90;;;;;;4973055;28;20231;-74
2023/11/14 04:54:49;;;;;;;3.10;1.52;;;9.10;99.90;;;;;;4974475;28;20220;-74
2023/11/14 04:57:16;;;;;;;2.95;2.10;;;9.10;99.90;;;;;;4975097;28;20259;-73
2023/11/14 04:59:43;;;;;;;1.27;1.00;;;9.10;99.90;;;;;;4975241;28;20212;-74
2023/11/14 05:02:10;;;;;;;6.00;2.10;;;9.10;99.90;;;;;;4974752;28;20228;-74
2023/11/14 05:04:37;;;;;;;2.13;1.20;;;9.10;99.90;;;;;;4974585;28;20208;-74
2023/11/14 05:07:04;;;;;;;4.32;1.58;;;9.20;99.90;;;;;;4975242;28;20207;-74
2023/11/14 05:09:33;;;;;;;4.03;2.17;;;9.20;99.90;;;;;;4976117;28;20199;-74
2023/11/14 05:11:59;;;;;;;1.92;1.30;;;9.20;99.90;;;;;;4974494;28;20720;-74
2023/11/14 05:14:26;;;;;;;5.63;1.45;;;9.20;99.90;;;;;;4973736;28;20238;-74
2023/11/14 05:16:56;;;;;;;1.13;1.00;;;9.20;99.90;;;;;;4974543;28;20204;-73
2023/11/14 05:19:23;;;;;;;3.28;1.33;;;9.20;99.90;;;;;;4974645;28;20208;-73
2023/11/14 05:21:50;;;;;;;4.18;1.45;;;9.20;99.90;;;;;;4974366;28;20228;-73
2023/11/14 05:24:17;;;;;;;2.97;1.48;;;9.20;99.90;;;;;;4974107;28;20787;-73
2023/11/14 05:26:45;;;;;;;1.98;1.35;;;9.20;99.90;;;;;;4974522;28;20699;-73
2023/11/14 05:29:12;;;;;;;4.30;1.35;;;9.30;99.90;;;;;;4974410;28;20243;-73
2023/11/14 05:31:39;;;;;;;2.47;1.38;;;9.30;99.90;;;;;;4974389;28;20235;-72
2023/11/14 05:34:08;;;;;;;4.40;1.55;;;9.30;99.90;;;;;;4974267;28;20244;-71
2023/11/14 05:36:36;;;;;;;7.05;1.80;;;9.40;99.90;;;;;;4967575;28;20635;-72
2023/11/14 05:39:03;;;;;;;1.60;1.50;;;9.40;99.90;;;;;;4973861;28;20219;-73
2023/11/14 05:41:30;;;;;;;2.53;1.52;;;9.40;99.90;;;;;;4973886;28;20594;-73
2023/11/14 05:43:59;;;;;;;3.15;1.42;;;9.40;99.90;;;;;;4973652;28;20208;-73
2023/11/14 05:46:26;;;;;;;2.22;1.08;;;9.40;99.90;;;;;;4974156;28;20254;-73
2023/11/14 05:48:52;;;;;;;4.70;1.30;;;9.40;99.90;;;;;;4974090;28;20214;-73
2023/11/14 05:51:20;;;;;;;1.23;1.08;;;9.40;99.90;;;;;;4973844;28;20238;-71
2023/11/14 05:53:47;;;;;;;1.55;1.20;;;9.40;99.90;;;;;;4972959;28;20223;-71
2023/11/14 05:56:14;;;;;;;3.75;1.05;;;9.50;99.90;;;;;;4973813;28;20216;-71
2023/11/14 05:58:41;;;;;;;1.88;1.13;;;9.40;99.90;;;;;;4973766;28;20239;-72
2023/11/14 06:01:10;;;;;;;6.85;1.50;;;9.40;99.90;;;;;;4973773;28;20238;-73
2023/11/14 06:03:37;;;;;;;1.42;1.33;;;9.40;99.90;;;;;;4967424;28;20208;-73
2023/11/14 06:06:05;;;;;;;3.50;1.40;;;9.40;99.90;;;;;;4973815;28;20247;-73
2023/11/14 06:08:31;;;;;;;2.15;1.65;;;9.40;99.90;;;;;;4973513;28;20215;-72
2023/11/14 06:10:58;;;;;;;2.22;1.23;;;9.40;99.90;;;;;;4973441;28;20267;-73
2023/11/14 06:13:25;;;;;;;2.38;1.00;;;9.40;99.90;;;;;;4973336;28;20224;-77
2023/11/14 06:15:52;;;;;;;3.10;1.13;;;9.40;99.90;;;;;;4973061;28;20207;-74
2023/11/14 06:18:20;;;;;;;2.08;1.48;;;9.40;99.90;;;;;;4973279;28;20591;-72
2023/11/14 06:20:46;;;;;;;2.20;1.33;;;9.30;99.90;;;;;;4974059;28;20238;-73
2023/11/14 06:23:13;;;;;;;2.47;1.20;;;9.30;99.90;;;;;;4973727;28;20208;-72
2023/11/14 06:25:40;;;;;;;1.35;1.25;;;9.30;99.90;;;;;;4973007;28;20601;-73
2023/11/14 06:28:07;;;;;;;3.80;1.25;;;9.30;99.90;;;;;;4973463;28;20216;-72
2023/11/14 06:30:35;;;;;;;3.08;1.85;;;9.30;99.90;;;;;;4973308;28;20318;-73
2023/11/14 06:33:03;;;;;;;1.10;1.00;;;9.30;99.90;;;;;;4972977;28;20211;-73
2023/11/14 06:35:31;;;;;;;1.48;1.17;;;9.20;99.90;;;;;;4972697;28;20645;-72
2023/11/14 06:37:58;;;;;;;1.27;1.17;;;9.20;99.90;;;;;;4973029;28;20677;-73
2023/11/14 06:40:25;;;;;;;1.88;1.30;;;9.20;99.90;;;;;;4972970;28;20212;-72
2023/11/14 06:42:51;;;;;;;1.67;1.13;;;9.20;99.90;;;;;;4973140;28;20711;-72
2023/11/14 06:45:18;;;;;;;1.20;1.10;;;9.20;99.90;;;;;;4969903;28;20668;-72
2023/11/14 06:47:45;;;;;;;1.20;1.00;;;9.20;99.90;;;;;;4972402;28;20712;-72
2023/11/14 06:50:12;;;;;;;7.95;1.48;;;9.20;99.90;;;;;;4973065;28;20208;-72
2023/11/14 06:52:40;;;;;;;3.33;1.05;;;9.20;99.90;;;;;;4972770;28;20228;-72
2023/11/14 06:55:07;;;;;;;2.70;1.25;;;9.20;99.90;;;;;;4972683;28;20224;-73
2023/11/14 06:57:35;;;;;;;1.90;1.40;;;9.30;99.90;;;;;;4971934;28;20208;-73
2023/11/14 07:00:03;;;;;;;1.70;1.17;;;9.30;99.90;;;;;;4972084;28;20247;-73
2023/11/14 07:02:30;;;;;;;3.42;1.15;;;9.30;99.90;;;;;;4971887;28;20227;-73
2023/11/14 07:04:57;;;;;;;1.38;1.00;;;9.30;99.90;;;;;;4972010;28;20295;-74
2023/11/14 07:07:24;;;;;;;1.90;0.90;;;9.30;99.90;;;;;;4972256;28;20740;-74
2023/11/14 07:09:52;;;;;;;1.35;1.05;;;9.30;99.90;;;;;;4970325;28;20298;-71
2023/11/14 07:12:20;;;;;;;1.00;0.80;;;9.40;99.90;;;;;;4967993;28;20239;-74
2023/11/14 07:14:47;;;;;;;1.25;1.13;;;9.40;99.90;;;;;;4972743;28;20286;-72
2023/11/14 07:17:14;;;;;;;3.00;1.10;;;9.50;99.90;;;;;;4972399;28;20672;-74
2023/11/14 07:19:41;;;;;;;1.17;1.00;;;9.50;99.90;;;;;;4972033;28;20219;-74
2023/11/14 07:22:08;;;;;;;1.58;1.10;;;9.60;99.90;;;;;;4972011;28;20724;-75
2023/11/14 07:24:35;;;;;;;3.22;1.13;;;9.60;99.90;;;;;;4971634;28;20627;-75
2023/11/14 07:27:05;;;;;;;2.08;1.02;;;9.60;99.90;;;;;;4972441;28;20305;-72
2023/11/14 07:29:32;;;;;;;1.80;1.10;;;9.60;99.90;;;;;;4973216;28;20208;-71
2023/11/14 07:32:00;;;;;;;5.88;1.10;;;9.60;99.90;;;;;;4972950;28;20267;-71
2023/11/14 07:34:28;;;;;;;4.45;1.75;;;9.60;99.90;;;;;;4970984;28;20696;-73
2023/11/14 07:36:55;;;;;;;1.92;0.98;;;9.70;99.90;;;;;;4972749;28;20204;-73
2023/11/14 07:39:24;;;;;;;2.17;1.10;;;9.80;99.90;;;;;;4972150;28;20739;-72
2023/11/14 07:41:51;;;;;;;1.55;1.05;;;9.90;99.90;;;;;;4971976;28;20223;-73
2023/11/14 07:44:58;;;;;;;1.63;0.90;;;10.00;99.90;;;;;;4969439;28;20205;-75
2023/11/14 07:47:28;;;;;;;2.55;1.17;;;10.10;99.90;;;;;;4952912;28;20207;-74
2023/11/14 07:49:54;;;;;;;1.25;1.00;;;10.20;99.90;;;;;;4971979;28;20640;-74
2023/11/14 07:52:22;;;;;;;1.98;1.25;;;10.10;99.90;;;;;;4972075;28;20224;-73
2023/11/14 07:54:49;;;;;;;3.40;0.98;;;10.10;99.90;;;;;;4971746;28;20760;-72
2023/11/14 07:57:17;;;;;;;1.98;1.20;;;10.00;99.90;;;;;;4969651;28;20263;-72
2023/11/14 07:59:44;;;;;;;2.42;1.10;;;10.00;99.90;;;;;;4972228;28;20838;-72
2023/11/14 08:02:11;;;;;;;2.38;1.25;;;10.00;99.90;;;;;;4971831;28;20228;-71
2023/11/14 08:04:40;;;;;;;2.35;1.10;;;10.00;99.90;;;;;;4971824;28;20204;-71
2023/11/14 08:07:09;;;;;;;3.78;1.80;;;10.00;99.90;;;;;;4972529;28;20210;-71
2023/11/14 08:09:36;;;;;;;1.70;0.80;;;10.00;99.90;;;;;;4971665;28;20208;-71
2023/11/14 08:12:03;;;;;;;1.55;1.10;;;10.00;99.90;;;;;;4971999;28;20311;-71
2023/11/14 08:14:30;;;;;;;1.50;1.23;;;10.10;99.90;;;;;;4971513;28;20714;-72
2023/11/14 08:16:57;;;;;;;3.45;1.42;;;10.10;99.90;;;;;;4972653;28;20210;-72
2023/11/14 08:19:24;;;;;;;1.52;1.15;;;10.10;99.90;;;;;;4975471;28;20204;-73
2023/11/14 08:21:53;;;;;;;0.98;0.80;;;10.20;99.90;;;;;;4975374;28;20224;-73
2023/11/14 08:24:19;;;;;;;1.70;1.00;;;10.20;99.90;;;;;;4974985;28;20704;-72
2023/11/14 08:26:46;;;;;;;1.02;0.75;;;10.20;99.90;;;;;;4975219;28;20291;-75
2023/11/14 08:29:13;;;;;;;1.00;0.90;;;10.20;99.90;;;;;;4975541;28;20204;-73
2023/11/14 08:31:42;;;;;;;1.85;0.98;;;10.30;99.90;;;;;;4975569;28;20310;-72
2023/11/14 08:34:08;;;;;;;0.80;0.70;;;10.30;99.90;;;;;;4974864;28;20640;-72
2023/11/14 08:36:35;;;;;;;1.60;1.00;;;10.30;99.90;;;;;;4975308;28;20291;-72
2023/11/14 08:39:06;;;;;;;1.40;1.15;;;10.30;99.90;;;;;;4974957;28;20200;-72
2023/11/14 08:41:33;;;;;;;3.38;0.90;;;10.20;99.90;;;;;;4975340;28;20372;-72
2023/11/14 08:44:00;;;;;;;1.42;0.90;;;10.20;99.90;;;;;;4975320;28;20204;-72
2023/11/14 08:46:27;;;;;;;1.00;0.90;;;10.10;99.90;;;;;;4971454;28;20235;-75
2023/11/14 08:49:00;;;;;;;2.20;0.95;;;10.10;99.90;;;;;;4975144;28;20215;-75
2023/11/14 08:51:26;;;;;;;0.80;0.70;;;10.00;99.90;;;;;;4972513;28;20234;-72
2023/11/14 08:53:54;;;;;;;3.55;1.50;;;9.90;99.90;;;;;;4969820;28;20208;-76
2023/11/14 08:56:22;;;;;;;1.55;0.80;;;9.90;99.90;;;;;;4975057;28;20235;-73
2023/11/14 08:58:49;;;;;;;1.55;1.13;;;9.90;99.90;;;;;;4975750;28;20200;-73
2023/11/14 09:01:17;;;;;;;1.33;0.80;;;9.90;99.90;;;;;;4974976;28;20234;-71
2023/11/14 09:03:44;;;;;;;1.33;0.85;;;9.90;99.90;;;;;;4975190;28;20665;-71
2023/11/14 09:06:15;;;;;;;1.10;0.90;;;9.90;99.90;;;;;;4974890;28;20200;-71
2023/11/14 09:08:42;;;;;;;1.00;0.90;;;10.00;99.90;;;;;;4974620;28;20291;-72
2023/11/14 09:11:09;;;;;;;1.00;0.90;;;10.00;99.90;;;;;;4974999;28;20255;-71
2023/11/14 09:13:41;;;;;;;1.10;1.00;;;10.00;99.90;;;;;;4974456;28;20207;-74
2023/11/14 09:16:09;;;;;;;1.20;1.08;;;9.90;99.90;;;;;;4974519;28;20220;-74
2023/11/14 09:18:38;;;;;;;4.72;1.13;;;9.90;99.90;;;;;;4974836;28;20210;-74
2023/11/14 09:21:06;;;;;;;1.85;1.00;;;9.90;99.90;;;;;;4975772;28;20228;-72
2023/11/14 09:23:33;;;;;;;3.65;1.15;;;9.90;99.90;;;;;;4975078;28;20680;-73
2023/11/14 09:26:03;;;;;;;1.00;0.90;;;9.90;99.90;;;;;;4969760;28;20208;-73
2023/11/14 09:28:30;;;;;;;1.52;0.88;;;10.00;99.90;;;;;;4969677;28;20204;-74
2023/11/14 09:30:58;;;;;;;1.95;1.10;;;10.00;99.90;;;;;;4974068;28;20232;-73
2023/11/14 09:33:25;;;;;;;0.90;0.80;;;10.00;99.90;;;;;;4969354;28;20212;-73
2023/11/14 09:35:52;;;;;;;1.15;0.85;;;10.00;99.90;;;;;;4973843;28;20779;-74
2023/11/14 09:38:19;;;;;;;1.55;0.90;;;10.10;99.90;;;;;;4973624;28;20207;-74
2023/11/14 09:40:47;;;;;;;2.10;1.02;;;10.10;99.90;;;;;;4973767;28;20239;-76
2023/11/14 09:43:14;;;;;;;1.75;1.10;;;10.10;99.90;;;;;;4974131;28;20200;-75
2023/11/14 09:45:41;;;;;;;1.10;0.90;;;10.10;99.90;;;;;;4973569;28;20642;-75
2023/11/14 09:48:10;;;;;;;2.00;1.42;;;10.10;99.90;;;;;;4973043;28;20271;-74
2023/11/14 09:50:40;;;;;;;1.80;0.98;;;10.10;99.90;;;;;;4971275;28;20247;-73
2023/11/14 09:53:09;;;;;;;3.05;1.52;;;10.10;99.90;;;;;;4974882;28;20204;-73
2023/11/14 09:55:35;;;;;;;1.00;0.80;;;10.10;99.90;;;;;;4973298;28;20234;-73
2023/11/14 09:58:02;;;;;;;1.10;0.80;;;10.10;99.90;;;;;;4973305;28;20204;-74
2023/11/14 10:00:29;;;;;;;1.17;0.80;;;10.10;99.90;;;;;;4973498;28;20200;-74
2023/11/14 10:02:57;;;;;;;1.08;0.80;;;10.10;99.90;;;;;;4973422;28;20243;-75
2023/11/14 10:05:25;;;;;;;1.52;0.90;;;10.10;99.90;;;;;;4973749;28;20310;-77
2023/11/14 10:07:54;;;;;;;1.02;0.93;;;10.10;99.90;;;;;;4972788;28;20212;-76
2023/11/14 10:10:22;;;;;;;1.65;1.00;;;10.20;99.90;;;;;;4973561;28;20228;-74
2023/11/14 10:12:50;;;;;;;0.90;0.80;;;10.20;99.90;;;;;;4972969;28;20215;-74
2023/11/14 10:15:27;;;;;;;1.45;0.88;;;10.20;99.90;;;;;;4972928;28;20247;-72
2023/11/14 10:17:54;;;;;;;1.35;1.02;;;10.20;99.90;;;;;;4973276;28;20211;-73
2023/11/14 10:20:21;;;;;;;1.48;1.10;;;10.20;99.90;;;;;;4973212;28;20212;-71
2023/11/14 10:22:51;;;;;;;0.95;0.85;;;10.20;99.90;;;;;;4972983;28;20669;-72
2023/11/14 10:25:36;;;;;;;4.78;0.98;;;10.20;99.90;;;;;;4971956;28;20208;-71
2023/11/14 10:28:05;;;;;;;1.10;0.80;;;10.20;99.90;;;;;;4973126;28;20218;-71
2023/11/14 10:30:45;;;;;;;1.42;0.95;;;10.20;99.90;;;;;;4973376;28;20295;-72
2023/11/14 10:33:12;;;;;;;2.83;1.13;;;10.20;99.90;;;;;;4971362;28;20208;-72
2023/11/14 10:35:40;;;;;;;3.42;1.30;;;10.30;99.90;;;;;;4972654;28;20227;-71
2023/11/14 10:38:17;;;;;;;1.83;0.95;;;10.30;99.90;;;;;;4971993;28;20216;-73
2023/11/14 10:40:48;;;;;;;3.55;0.90;;;10.30;99.90;;;;;;4972455;28;20672;-72
2023/11/14 10:43:14;;;;;;;3.20;1.00;;;10.30;99.90;;;;;;4971423;28;20236;-73
2023/11/14 10:45:43;;;;;;;1.55;1.15;;;10.20;99.90;;;;;;4972472;28;20307;-73
2023/11/14 10:48:20;;;;;;;1.13;1.02;;;10.30;99.90;;;;;;4972734;28;20232;-73
2023/11/14 10:50:49;;;;;;;1.10;0.90;;;10.30;99.90;;;;;;4972352;28;20227;-73
2023/11/14 10:53:17;;;;;;;2.05;1.00;;;10.30;99.90;;;;;;4973020;28;20212;-73
2023/11/14 10:55:45;;;;;;;0.70;0.70;;;10.30;99.90;;;;;;4972425;28;20220;-73
2023/11/14 10:58:13;;;;;;;1.25;0.85;;;10.30;99.90;;;;;;4971814;28;20204;-75
2023/11/14 11:00:41;;;;;;;2.88;0.90;;;10.40;99.90;;;;;;4972482;28;20232;-73
2023/11/14 11:03:09;;;;;;;3.13;1.20;;;10.40;99.90;;;;;;4972372;28;20211;-74
2023/11/14 11:05:37;;;;;;;5.03;1.38;;;10.50;99.90;;;;;;4971983;28;20625;-73
2023/11/14 11:08:07;;;;;;;1.30;0.88;;;10.50;99.90;;;;;;4972446;28;20255;-73
2023/11/14 11:10:37;;;;;;;1.15;0.95;;;10.50;99.90;;;;;;4972601;28;20208;-74
2023/11/14 11:13:08;;;;;;;5.03;1.10;;;10.50;99.90;;;;;;4971864;28;20216;-73
2023/11/14 11:15:44;;;;;;;1.52;1.00;;;10.50;99.90;;;;;;4971781;28;20224;-73
2023/11/14 11:18:12;;;;;;;1.38;1.13;;;10.60;99.90;;;;;;4969895;28;20237;-74
2023/11/14 11:20:39;;;;;;;1.55;1.00;;;10.60;99.90;;;;;;4970640;28;20235;-73
2023/11/14 11:23:08;;;;;;;0.95;0.82;;;10.70;99.90;;;;;;4970101;28;20204;-74
2023/11/14 11:25:37;;;;;;;1.92;1.27;;;10.70;99.90;;;;;;4971353;28;20209;-73
2023/11/14 11:28:30;;;;;;;1.92;0.75;;;10.80;99.90;;;;;;4971157;28;20216;-73
2023/11/14 11:31:15;;;;;;;1.23;1.05;;;10.80;99.90;;;;;;4971319;28;20673;-73
2023/11/14 11:33:44;;;;;;;1.17;1.00;;;10.90;99.90;;;;;;4968323;28;20212;-73
2023/11/14 11:36:34;;;;;;;1.17;0.90;;;10.90;99.90;;;;;;4968847;28;20243;-73
2023/11/14 11:39:03;;;;;;;2.92;1.10;;;10.90;99.90;;;;;;4971001;28;20211;-73
2023/11/14 11:41:34;;;;;;;3.22;1.40;;;10.90;99.90;;;;;;4969374;28;20297;-72
2023/11/14 11:44:06;;;;;;;1.33;1.00;;;10.90;99.90;;;;;;4971109;28;20212;-73
2023/11/14 11:46:38;;;;;;;1.38;0.90;;;10.90;99.90;;;;;;5273337;23;20306;-72
2023/11/14 11:49:30;;;;;;;1.63;1.00;;;10.80;99.90;;;;;;4990558;28;20212;-72
2023/11/14 11:52:10;;;;;;;1.55;1.00;;;10.80;99.90;;;;;;4980295;28;20726;-72
2023/11/14 11:54:36;;;;;;;1.33;0.90;;;10.80;99.90;;;;;;4986124;28;20215;-73
2023/11/14 11:57:10;;;;;;;1.83;0.88;;;10.80;99.90;;;;;;4988168;28;20323;-73
2023/11/14 12:00:17;;;;;;;2.45;1.20;;;10.80;99.90;;;;;;4991984;28;20207;-73
2023/11/14 12:02:46;;;;;;;1.65;1.00;;;10.80;99.90;;;;;;4981999;28;20259;-74
2023/11/14 12:05:13;;;;;;;1.00;0.88;;;10.80;99.90;;;;;;4986881;28;20210;-73
2023/11/14 12:07:41;;;;;;;2.80;1.05;;;10.80;99.90;;;;;;4981852;28;20235;-74
2023/11/14 12:10:08;;;;;;;1.02;0.82;;;10.80;99.90;;;;;;4988223;28;20696;-73
2023/11/14 12:12:40;;;;;;;1.35;1.15;;;10.80;99.90;;;;;;4988954;28;20225;-73
2023/11/14 12:15:10;;;;;;;1.80;0.85;;;10.80;99.90;;;;;;4983056;28;20216;-73
2023/11/14 12:17:37;;;;;;;2.60;1.42;;;10.80;99.90;;;;;;4988864;28;20625;-73
2023/11/14 12:20:09;;;;;;;1.25;1.15;;;10.80;99.90;;;;;;4989822;28;20570;-73
2023/11/14 12:22:36;;;;;;;2.00;1.00;;;10.90;99.90;;;;;;4993443;28;20223;-74
2023/11/14 12:25:04;;;;;;;5.38;1.15;;;10.90;99.90;;;;;;4987537;28;20669;-73
2023/11/14 12:27:31;;;;;;;2.40;1.13;;;11.00;99.90;;;;;;4990444;28;20211;-73
2023/11/14 12:30:12;;;;;;;1.55;1.20;;;11.00;99.90;;;;;;4979211;28;20204;-73
2023/11/14 12:32:39;;;;;;;3.13;1.00;;;11.00;99.90;;;;;;4983649;28;20665;-75
2023/11/14 12:35:06;;;;;;;2.67;1.05;;;11.10;99.90;;;;;;4982280;28;20597;-75
2023/11/14 12:37:33;;;;;;;1.25;0.90;;;11.10;99.90;;;;;;4990338;28;20212;-76
2023/11/14 12:40:09;;;;;;;5.88;1.85;;;11.10;99.90;;;;;;4986427;28;20217;-77
2023/11/14 12:42:37;;;;;;;3.85;1.42;;;11.10;99.90;;;;;;4983207;28;20258;-75
2023/11/14 12:45:07;;;;;;;0.90;0.80;;;11.10;99.90;;;;;;4988005;28;20217;-75
2023/11/14 12:47:39;;;;;;;1.55;0.85;;;11.10;99.90;;;;;;4984571;28;20203;-75
2023/11/14 12:50:07;;;;;;;1.20;1.08;;;11.20;99.90;;;;;;4985995;28;20260;-75
2023/11/14 12:52:38;;;;;;;2.53;1.20;;;11.10;99.90;;;;;;4986915;28;20227;-75
2023/11/14 12:55:05;;;;;;;1.90;1.10;;;11.10;99.90;;;;;;4987064;28;20211;-75
2023/11/14 12:57:32;;;;;;;2.50;1.27;;;11.00;99.90;;;;;;4984089;28;20582;-74
2023/11/14 13:00:00;;;;;;;1.30;0.90;;;11.00;99.90;;;;;;4990480;28;20534;-75
2023/11/14 13:02:27;;;;;;;1.13;1.02;;;11.00;99.90;;;;;;4990378;28;20308;-75
2023/11/14 13:04:55;;;;;;;2.58;1.20;;;11.00;99.90;;;;;;4983735;28;20677;-72
2023/11/14 13:07:21;;;;;;;2.65;1.10;;;11.00;99.90;;;;;;4986983;28;20235;-73
2023/11/14 13:09:49;;;;;;;3.53;1.08;;;11.00;99.90;;;;;;4987083;28;20207;-72
2023/11/14 13:12:17;;;;;;;2.38;1.33;;;11.00;99.90;;;;;;4984581;28;20233;-73
2023/11/14 13:14:44;;;;;;;2.33;1.23;;;11.00;99.90;;;;;;4983095;28;20303;-73
2023/11/14 13:17:11;;;;;;;1.65;1.30;;;11.00;99.90;;;;;;4985459;28;20784;-75
2023/11/14 13:19:38;;;;;;;1.00;0.90;;;11.00;99.90;;;;;;4986577;28;20685;-76
2023/11/14 13:22:07;;;;;;;2.50;1.20;;;11.00;99.90;;;;;;4985944;28;20600;-75
2023/11/14 13:24:34;;;;;;;1.55;0.90;;;11.00;99.90;;;;;;4987138;28;20596;-76
2023/11/14 13:27:00;;;;;;;1.30;0.80;;;11.00;99.90;;;;;;4993406;28;20205;-75
2023/11/14 13:29:27;;;;;;;1.33;1.00;;;11.00;99.90;;;;;;4979921;28;20208;-75
2023/11/14 13:31:54;;;;;;;2.45;1.25;;;11.00;99.90;;;;;;4986353;28;20665;-76
2023/11/14 13:34:21;;;;;;;2.10;1.02;;;11.00;99.90;;;;;;4985985;28;20215;-76
2023/11/14 13:36:48;;;;;;;1.30;0.90;;;11.00;99.90;;;;;;4985810;28;20224;-73
2023/11/14 13:39:16;;;;;;;1.80;1.10;;;10.90;99.90;;;;;;4988450;28;20211;-73
2023/11/14 13:41:43;;;;;;;1.33;1.00;;;10.90;99.90;;;;;;4988475;28;20426;-73
2023/11/14 13:44:10;;;;;;;2.08;1.00;;;10.90;99.90;;;;;;4985658;28;20214;-75
2023/11/14 13:46:36;;;;;;;2.33;1.30;;;10.90;99.90;;;;;;4988444;28;20231;-73
2023/11/14 13:49:03;;;;;;;1.10;0.90;;;10.90;99.90;;;;;;4983484;28;20224;-73
2023/11/14 13:51:30;;;;;;;1.25;0.90;;;10.90;99.90;;;;;;4986070;28;20227;-75
2023/11/14 13:53:57;;;;;;;2.55;1.35;;;10.90;99.90;;;;;;4977743;28;20211;-75
2023/11/14 13:56:25;;;;;;;1.55;1.23;;;10.90;99.90;;;;;;4985461;28;20231;-75
2023/11/14 13:58:52;;;;;;;2.22;1.55;;;10.90;99.90;;;;;;4985767;28;20211;-75
2023/11/14 14:01:19;;;;;;;1.60;0.90;;;10.90;99.90;;;;;;4982739;28;20223;-75
2023/11/14 14:03:46;;;;;;;2.53;1.25;;;10.90;99.90;;;;;;4988336;28;20631;-75
2023/11/14 14:06:13;;;;;;;1.67;1.15;;;10.90;99.90;;;;;;4983141;28;20204;-75
2023/11/14 14:08:40;;;;;;;1.98;1.00;;;10.90;99.90;;;;;;4974536;28;20213;-74
2023/11/14 14:11:08;;;;;;;2.60;1.52;;;10.90;99.90;;;;;;4974371;28;20229;-74
2023/11/14 14:13:36;;;;;;;2.42;1.10;;;10.90;99.90;;;;;;4974016;28;20252;-74
2023/11/14 14:16:03;;;;;;;3.15;1.23;;;10.80;99.90;;;;;;4988864;28;20350;-75
2023/11/14 14:18:31;;;;;;;6.63;1.52;;;10.80;99.90;;;;;;4981006;28;20204;-75
2023/11/14 14:21:02;;;;;;;1.08;0.80;;;10.80;99.90;;;;;;4981476;28;20770;-75
2023/11/14 14:23:29;;;;;;;1.20;0.90;;;10.80;99.90;;;;;;4985381;28;20203;-73
2023/11/14 14:25:57;;;;;;;1.00;0.90;;;10.80;99.90;;;;;;4992409;28;20292;-73
2023/11/14 14:28:29;;;;;;;1.30;0.85;;;10.70;99.90;;;;;;4992350;28;20262;-73
2023/11/14 14:30:59;;;;;;;2.40;1.20;;;10.70;99.90;;;;;;4992438;28;20650;-73
2023/11/14 14:33:26;;;;;;;1.35;0.90;;;10.60;99.90;;;;;;4991989;28;20204;-73
2023/11/14 14:35:53;;;;;;;2.33;1.05;;;10.60;99.90;;;;;;4991833;28;20218;-73
2023/11/14 14:38:21;;;;;;;1.90;1.30;;;10.60;99.90;;;;;;4992250;28;20273;-71
2023/11/14 14:40:48;;;;;;;4.15;1.40;;;10.50;99.90;;;;;;4992645;28;20277;-72
2023/11/14 14:43:14;;;;;;;1.55;1.45;;;10.50;99.90;;;;;;4992004;28;20211;-74
2023/11/14 14:45:43;;;;;;;1.00;0.85;;;10.60;99.90;;;;;;4991845;28;20677;-74
2023/11/14 14:48:11;;;;;;;1.08;0.98;;;10.50;99.90;;;;;;4992121;28;20582;-73
2023/11/14 14:50:38;;;;;;;1.30;0.88;;;10.50;99.90;;;;;;4992045;28;20700;-75
2023/11/14 14:53:06;;;;;;;0.90;0.70;;;10.50;99.90;;;;;;4991908;28;20219;-75
2023/11/14 14:55:33;;;;;;;1.48;1.05;;;10.50;99.90;;;;;;4991593;28;20694;-74
2023/11/14 14:58:03;;;;;;;1.67;1.00;;;10.50;99.90;;;;;;4991919;28;20271;-75
2023/11/14 15:00:31;;;;;;;1.77;1.25;;;10.40;99.90;;;;;;4984377;28;20211;-75
2023/11/14 15:02:58;;;;;;;2.25;1.35;;;10.40;99.90;;;;;;4992017;28;20215;-74
2023/11/14 15:05:34;;;;;;;3.17;1.10;;;10.30;99.90;;;;;;4991242;28;20631;-75
2023/11/14 15:08:03;;;;;;;1.83;1.00;;;10.30;99.90;;;;;;4991867;28;20227;-74
2023/11/14 15:10:30;;;;;;;1.42;0.80;;;10.30;99.90;;;;;;4984237;28;20199;-73
2023/11/14 15:12:56;;;;;;;0.75;0.70;;;10.30;99.90;;;;;;4991840;28;20211;-73
2023/11/14 15:15:24;;;;;;;1.85;0.95;;;10.20;99.90;;;;;;4990860;28;20711;-76
2023/11/14 15:17:55;;;;;;;1.00;0.90;;;10.20;99.90;;;;;;4991696;28;20223;-75
2023/11/14 15:20:21;;;;;;;1.48;1.35;;;10.20;99.90;;;;;;4991395;28;20223;-75
2023/11/14 15:22:50;;;;;;;1.52;0.90;;;10.10;99.90;;;;;;4991507;28;20203;-75
2023/11/14 15:25:18;;;;;;;1.60;0.95;;;10.10;99.90;;;;;;4990525;28;20243;-76
2023/11/14 15:27:44;;;;;;;1.77;0.88;;;10.10;99.90;;;;;;4991350;28;20207;-73
2023/11/14 15:30:12;;;;;;;1.25;0.95;;;10.00;99.90;;;;;;4989228;28;20238;-73
2023/11/14 15:32:39;;;;;;;1.30;1.00;;;10.00;99.90;;;;;;4990097;28;20227;-76
2023/11/14 15:35:06;;;;;;;2.70;1.13;;;10.00;99.90;;;;;;4987698;28;20238;-73
2023/11/14 15:37:34;;;;;;;2.63;1.75;;;9.90;99.90;;;;;;4991290;28;20281;-75
2023/11/14 15:40:06;;;;;;;3.47;1.08;;;9.90;99.90;;;;;;4991762;28;20335;-75
2023/11/14 15:42:33;;;;;;;1.15;0.90;;;9.80;99.90;;;;;;4983730;28;20233;-75
2023/11/14 15:44:59;;;;;;;1.77;0.80;;;9.80;99.90;;;;;;4991041;28;20203;-76
2023/11/14 15:47:26;;;;;;;1.25;0.80;;;9.70;99.90;;;;;;4990620;28;20203;-76
2023/11/14 15:49:53;;;;;;;1.30;1.00;;;9.60;99.90;;;;;;4991665;28;20238;-72
2023/11/14 15:52:20;;;;;;;1.38;1.10;;;9.60;99.90;;;;;;4991183;28;20223;-71
2023/11/14 15:54:46;;;;;;;2.20;1.10;;;9.50;99.90;;;;;;4991069;28;20203;-72
2023/11/14 15:57:15;;;;;;;3.85;1.30;;;9.50;99.90;;;;;;4990855;28;20223;-72
2023/11/14 15:59:42;;;;;;;1.40;1.10;;;9.40;99.90;;;;;;4991399;28;20554;-75
2023/11/14 16:02:09;;;;;;;0.93;0.82;;;9.40;99.90;;;;;;4991088;28;20227;-75
2023/11/14 16:04:38;;;;;;;1.80;1.08;;;9.40;99.90;;;;;;4990905;28;20735;-75
2023/11/14 16:07:05;;;;;;;1.10;1.00;;;9.40;99.90;;;;;;4991121;28;20233;-76
2023/11/14 16:09:32;;;;;;;0.80;0.70;;;9.30;99.90;;;;;;4992231;28;20207;-80
2023/11/14 16:11:58;;;;;;;1.05;0.90;;;9.30;99.90;;;;;;4995342;28;20232;-73
2023/11/14 16:14:28;;;;;;;2.75;1.00;;;9.30;99.90;;;;;;4986806;28;20204;-73
2023/11/14 16:16:55;;;;;;;1.42;1.10;;;9.20;99.90;;;;;;4989076;28;20969;-78
2023/11/14 16:19:22;;;;;;;1.55;1.40;;;9.20;99.90;;;;;;4996408;28;20214;-74
2023/11/14 16:21:49;;;;;;;0.80;0.80;;;9.20;99.90;;;;;;4987000;28;20234;-73
2023/11/14 16:24:15;;;;;;;0.80;0.70;;;9.20;99.90;;;;;;4989140;28;20207;-72
2023/11/14 16:26:42;;;;;;;1.10;0.95;;;9.20;99.90;;;;;;5048575;23;20228;-74
2023/11/14 16:29:09;;;;;;;0.88;0.80;;;9.20;99.90;;;;;;4962518;28;20224;-73
2023/11/14 16:31:40;;;;;;;1.00;0.82;;;9.20;99.90;;;;;;4960314;28;20233;-73
2023/11/14 16:34:07;;;;;;;0.80;0.80;;;9.10;99.90;;;;;;4948943;28;20708;-74
2023/11/14 16:36:33;;;;;;;0.70;0.70;;;9.10;99.90;;;;;;4947869;28;20224;-74
2023/11/14 16:39:01;;;;;;;0.90;0.77;;;9.10;99.90;;;;;;4947491;28;20219;-73
2023/11/14 16:41:27;;;;;;;0.90;0.75;;;9.10;99.90;;;;;;4951237;28;20228;-73
2023/11/14 16:43:54;;;;;;;1.00;0.80;;;9.10;99.90;;;;;;4960169;28;20208;-75
2023/11/14 16:46:21;;;;;;;4.22;1.42;;;9.10;99.90;;;;;;4959715;28;21666;-74
2023/11/14 16:48:49;;;;;;;2.47;1.40;;;9.10;99.90;;;;;;4957184;28;20212;-73
2023/11/14 16:51:22;;;;;;;1.30;1.00;;;9.10;99.90;;;;;;4960117;28;20294;-74
2023/11/14 16:53:50;;;;;;;1.00;0.80;;;9.10;99.90;;;;;;4963858;28;20214;-74
2023/11/14 16:56:17;;;;;;;0.90;0.80;;;9.10;99.90;;;;;;4962163;28;20329;-74
2023/11/14 16:58:44;;;;;;;1.23;1.10;;;9.10;99.90;;;;;;4960906;28;20220;-73
2023/11/14 17:01:11;;;;;;;1.83;1.10;;;9.10;99.90;;;;;;4954606;28;20229;-74
2023/11/14 17:03:40;;;;;;;1.20;0.85;;;9.10;99.90;;;;;;4954439;28;20212;-73
2023/11/14 17:06:09;;;;;;;0.90;0.80;;;9.10;99.90;;;;;;4953969;28;20223;-74
2023/11/14 17:08:35;;;;;;;1.10;0.90;;;9.10;99.90;;;;;;4954735;28;20217;-73
2023/11/14 17:11:02;;;;;;;0.90;0.80;;;9.10;99.90;;;;;;4954662;28;20269;-74
2023/11/14 17:13:29;;;;;;;0.90;0.80;;;9.10;99.90;;;;;;4954436;28;20212;-74
2023/11/14 17:15:57;;;;;;;1.65;0.95;;;9.10;99.90;;;;;;4954543;28;20747;-74